sensor_id;sensor_type;location;lat;lon;timestamp;temperature;humidity
20416;DHT22;10367;52.202;5.996;2023-04-30T00:01:10;7.20;99.90
20416;DHT22;10367;52.202;5.996;2023-04-30T00:03:39;7.10;99.90
20416;DHT22;10367;52.202;5.996;2023-04-30T00:06:08;7.20;99.90
20416;DHT22;10367;52.202;5.996;2023-04-30T00:08:36;7.20;99.90
20416;DHT22;10367;52.202;5.996;2023-04-30T00:11:06;7.20;99.90
20416;DHT22;10367;52.202;5.996;2023-04-30T00:13:35;7.20;99.90
20416;DHT22;10367;52.202;5.996;2023-04-30T00:16:04;7.10;99.90
20416;DHT22;10367;52.202;5.996;2023-04-30T00:18:33;7.00;99.90
20416;DHT22;10367;52.202;5.996;2023-04-30T00:21:02;7.00;99.90
20416;DHT22;10367;52.202;5.996;2023-04-30T00:23:30;7.00;99.90
20416;DHT22;10367;52.202;5.996;2023-04-30T00:25:59;7.00;99.90
20416;DHT22;10367;52.202;5.996;2023-04-30T00:28:29;7.00;99.90
20416;DHT22;10367;52.202;5.996;2023-04-30T00:30:58;7.00;99.90
20416;DHT22;10367;52.202;5.996;2023-04-30T00:33:26;7.00;99.90
20416;DHT22;10367;52.202;5.996;2023-04-30T00:35:55;7.10;99.90
20416;DHT22;10367;52.202;5.996;2023-04-30T00:38:24;7.10;99.90
20416;DHT22;10367;52.202;5.996;2023-04-30T00:40:54;7.00;99.90
20416;DHT22;10367;52.202;5.996;2023-04-30T00:43:22;6.90;99.90
20416;DHT22;10367;52.202;5.996;2023-04-30T00:45:52;6.80;99.90
20416;DHT22;10367;52.202;5.996;2023-04-30T00:48:21;6.80;99.90
20416;DHT22;10367;52.202;5.996;2023-04-30T00:50:50;6.80;99.90
20416;DHT22;10367;52.202;5.996;2023-04-30T00:53:19;6.80;99.90
20416;DHT22;10367;52.202;5.996;2023-04-30T00:55:50;6.80;99.90
20416;DHT22;10367;52.202;5.996;2023-04-30T00:58:20;6.70;99.90
20416;DHT22;10367;52.202;5.996;2023-04-30T01:00:50;6.50;99.90
20416;DHT22;10367;52.202;5.996;2023-04-30T01:03:21;6.40;99.90
20416;DHT22;10367;52.202;5.996;2023-04-30T01:05:53;6.50;99.90
20416;DHT22;10367;52.202;5.996;2023-04-30T01:08:23;6.50;99.90
20416;DHT22;10367;52.202;5.996;2023-04-30T01:10:58;6.50;99.90
20416;DHT22;10367;52.202;5.996;2023-04-30T01:13:37;6.50;99.90
20416;DHT22;10367;52.202;5.996;2023-04-30T01:16:12;6.40;99.90
20416;DHT22;10367;52.202;5.996;2023-04-30T01:18:48;6.30;99.90
20416;DHT22;10367;52.202;5.996;2023-04-30T01:21:18;6.30;99.90
20416;DHT22;10367;52.202;5.996;2023-04-30T01:24:17;6.40;99.90
20416;DHT22;10367;52.202;5.996;2023-04-30T01:27:02;6.30;99.90
20416;DHT22;10367;52.202;5.996;2023-04-30T01:29:35;6.30;99.90
20416;DHT22;10367;52.202;5.996;2023-04-30T01:32:07;6.30;99.90
20416;DHT22;10367;52.202;5.996;2023-04-30T01:34:39;6.30;99.90
20416;DHT22;10367;52.202;5.996;2023-04-30T01:37:20;6.20;99.90
20416;DHT22;10367;52.202;5.996;2023-04-30T01:40:01;6.20;99.90
20416;DHT22;10367;52.202;5.996;2023-04-30T01:42:41;6.10;99.90
20416;DHT22;10367;52.202;5.996;2023-04-30T01:45:30;6.10;99.90
20416;DHT22;10367;52.202;5.996;2023-04-30T01:48:07;6.10;99.90
20416;DHT22;10367;52.202;5.996;2023-04-30T01:50:47;6.00;99.90
20416;DHT22;10367;52.202;5.996;2023-04-30T01:53:20;6.00;99.90
20416;DHT22;10367;52.202;5.996;2023-04-30T01:55:54;6.00;99.90
20416;DHT22;10367;52.202;5.996;2023-04-30T01:58:28;6.10;99.90
20416;DHT22;10367;52.202;5.996;2023-04-30T02:01:00;6.00;99.90
20416;DHT22;10367;52.202;5.996;2023-04-30T02:03:28;6.00;99.90
20416;DHT22;10367;52.202;5.996;2023-04-30T02:05:57;6.00;99.90
20416;DHT22;10367;52.202;5.996;2023-04-30T02:08:26;6.00;99.90
20416;DHT22;10367;52.202;5.996;2023-04-30T02:10:55;6.00;99.90
20416;DHT22;10367;52.202;5.996;2023-04-30T02:13:24;5.90;99.90
20416;DHT22;10367;52.202;5.996;2023-04-30T02:15:55;6.00;99.90
20416;DHT22;10367;52.202;5.996;2023-04-30T02:18:26;6.00;99.90
20416;DHT22;10367;52.202;5.996;2023-04-30T02:20:55;5.90;99.90
20416;DHT22;10367;52.202;5.996;2023-04-30T02:23:24;5.80;99.90
20416;DHT22;10367;52.202;5.996;2023-04-30T02:25:53;5.80;99.90
20416;DHT22;10367;52.202;5.996;2023-04-30T02:28:21;5.80;99.90
20416;DHT22;10367;52.202;5.996;2023-04-30T02:30:50;5.80;99.90
20416;DHT22;10367;52.202;5.996;2023-04-30T02:33:19;5.80;99.90
20416;DHT22;10367;52.202;5.996;2023-04-30T02:35:49;5.80;99.90
20416;DHT22;10367;52.202;5.996;2023-04-30T02:38:21;5.70;99.90
20416;DHT22;10367;52.202;5.996;2023-04-30T02:40:50;5.70;99.90
20416;DHT22;10367;52.202;5.996;2023-04-30T02:43:19;5.60;99.90
20416;DHT22;10367;52.202;5.996;2023-04-30T02:45:47;5.60;99.90
20416;DHT22;10367;52.202;5.996;2023-04-30T02:48:16;5.50;99.90
20416;DHT22;10367;52.202;5.996;2023-04-30T02:50:45;5.50;99.90
20416;DHT22;10367;52.202;5.996;2023-04-30T02:53:15;5.40;99.90
20416;DHT22;10367;52.202;5.996;2023-04-30T02:55:43;5.50;99.90
20416;DHT22;10367;52.202;5.996;2023-04-30T02:58:14;5.60;99.90
20416;DHT22;10367;52.202;5.996;2023-04-30T03:00:43;5.60;99.90
20416;DHT22;10367;52.202;5.996;2023-04-30T03:03:12;5.60;99.90
20416;DHT22;10367;52.202;5.996;2023-04-30T03:05:41;5.60;99.90
20416;DHT22;10367;52.202;5.996;2023-04-30T03:08:11;5.60;99.90
20416;DHT22;10367;52.202;5.996;2023-04-30T03:10:41;5.50;99.90
20416;DHT22;10367;52.202;5.996;2023-04-30T03:13:09;5.50;99.90
20416;DHT22;10367;52.202;5.996;2023-04-30T03:15:38;5.40;99.90
20416;DHT22;10367;52.202;5.996;2023-04-30T03:18:07;5.30;99.90
20416;DHT22;10367;52.202;5.996;2023-04-30T03:20:35;5.30;99.90
20416;DHT22;10367;52.202;5.996;2023-04-30T03:23:04;5.30;99.90
20416;DHT22;10367;52.202;5.996;2023-04-30T03:25:35;5.40;99.90
20416;DHT22;10367;52.202;5.996;2023-04-30T03:28:05;5.30;99.90
20416;DHT22;10367;52.202;5.996;2023-04-30T03:30:34;5.30;99.90
20416;DHT22;10367;52.202;5.996;2023-04-30T03:33:02;5.30;99.90
20416;DHT22;10367;52.202;5.996;2023-04-30T03:35:33;5.20;99.90
20416;DHT22;10367;52.202;5.996;2023-04-30T03:38:02;5.10;99.90
20416;DHT22;10367;52.202;5.996;2023-04-30T03:40:30;5.10;99.90
20416;DHT22;10367;52.202;5.996;2023-04-30T03:42:59;5.20;99.90
20416;DHT22;10367;52.202;5.996;2023-04-30T03:45:29;5.10;99.90
20416;DHT22;10367;52.202;5.996;2023-04-30T03:47:58;5.00;99.90
20416;DHT22;10367;52.202;5.996;2023-04-30T03:50:27;5.00;99.90
20416;DHT22;10367;52.202;5.996;2023-04-30T03:52:55;5.00;99.90
20416;DHT22;10367;52.202;5.996;2023-04-30T03:55:24;5.00;99.90
20416;DHT22;10367;52.202;5.996;2023-04-30T03:57:53;5.10;99.90
20416;DHT22;10367;52.202;5.996;2023-04-30T04:00:21;5.10;99.90
20416;DHT22;10367;52.202;5.996;2023-04-30T04:02:51;5.00;99.90
20416;DHT22;10367;52.202;5.996;2023-04-30T04:05:21;4.90;99.90
20416;DHT22;10367;52.202;5.996;2023-04-30T04:07:49;4.90;99.90
20416;DHT22;10367;52.202;5.996;2023-04-30T04:10:18;4.90;99.90
20416;DHT22;10367;52.202;5.996;2023-04-30T04:12:47;4.90;99.90
20416;DHT22;10367;52.202;5.996;2023-04-30T04:15:16;4.90;99.90
20416;DHT22;10367;52.202;5.996;2023-04-30T04:17:45;5.00;99.90
20416;DHT22;10367;52.202;5.996;2023-04-30T04:20:15;5.00;99.90
20416;DHT22;10367;52.202;5.996;2023-04-30T04:22:47;5.00;99.90
20416;DHT22;10367;52.202;5.996;2023-04-30T04:25:16;5.10;99.90
20416;DHT22;10367;52.202;5.996;2023-04-30T04:27:45;5.10;99.90
20416;DHT22;10367;52.202;5.996;2023-04-30T04:30:13;5.10;99.90
20416;DHT22;10367;52.202;5.996;2023-04-30T04:32:43;5.10;99.90
20416;DHT22;10367;52.202;5.996;2023-04-30T04:35:17;5.00;99.90
20416;DHT22;10367;52.202;5.996;2023-04-30T04:37:48;5.00;99.90
20416;DHT22;10367;52.202;5.996;2023-04-30T04:40:17;5.10;99.90
20416;DHT22;10367;52.202;5.996;2023-04-30T04:42:48;5.10;99.90
20416;DHT22;10367;52.202;5.996;2023-04-30T04:45:18;5.10;99.90
20416;DHT22;10367;52.202;5.996;2023-04-30T04:47:47;5.20;99.90
20416;DHT22;10367;52.202;5.996;2023-04-30T04:50:18;5.20;99.90
20416;DHT22;10367;52.202;5.996;2023-04-30T04:52:47;5.10;99.90
20416;DHT22;10367;52.202;5.996;2023-04-30T04:55:16;5.00;99.90
20416;DHT22;10367;52.202;5.996;2023-04-30T04:57:46;5.00;99.90
20416;DHT22;10367;52.202;5.996;2023-04-30T05:00:15;5.10;99.90
20416;DHT22;10367;52.202;5.996;2023-04-30T05:02:46;5.20;99.90
20416;DHT22;10367;52.202;5.996;2023-04-30T05:05:15;5.20;99.90
20416;DHT22;10367;52.202;5.996;2023-04-30T05:07:45;5.10;99.90
20416;DHT22;10367;52.202;5.996;2023-04-30T05:10:14;5.10;99.90
20416;DHT22;10367;52.202;5.996;2023-04-30T05:12:43;5.20;99.90
20416;DHT22;10367;52.202;5.996;2023-04-30T05:15:12;5.20;99.90
20416;DHT22;10367;52.202;5.996;2023-04-30T05:17:41;5.20;99.90
20416;DHT22;10367;52.202;5.996;2023-04-30T05:20:10;5.30;99.90
20416;DHT22;10367;52.202;5.996;2023-04-30T05:22:39;5.30;99.90
20416;DHT22;10367;52.202;5.996;2023-04-30T05:25:10;5.40;99.90
20416;DHT22;10367;52.202;5.996;2023-04-30T05:27:38;5.50;99.90
20416;DHT22;10367;52.202;5.996;2023-04-30T05:30:08;5.60;99.90
20416;DHT22;10367;52.202;5.996;2023-04-30T05:32:37;5.70;99.90
20416;DHT22;10367;52.202;5.996;2023-04-30T05:35:06;5.80;99.90
20416;DHT22;10367;52.202;5.996;2023-04-30T05:37:35;5.90;99.90
20416;DHT22;10367;52.202;5.996;2023-04-30T05:40:05;5.90;99.90
20416;DHT22;10367;52.202;5.996;2023-04-30T05:42:35;6.00;99.90
20416;DHT22;10367;52.202;5.996;2023-04-30T05:45:05;6.00;99.90
20416;DHT22;10367;52.202;5.996;2023-04-30T05:47:34;6.10;99.90
20416;DHT22;10367;52.202;5.996;2023-04-30T05:50:03;6.20;99.90
20416;DHT22;10367;52.202;5.996;2023-04-30T05:52:32;6.30;99.90
20416;DHT22;10367;52.202;5.996;2023-04-30T05:55:01;6.40;99.90
20416;DHT22;10367;52.202;5.996;2023-04-30T05:57:29;6.50;99.90
20416;DHT22;10367;52.202;5.996;2023-04-30T05:59:59;6.60;99.90
20416;DHT22;10367;52.202;5.996;2023-04-30T06:02:28;6.70;99.90
20416;DHT22;10367;52.202;5.996;2023-04-30T06:04:57;6.80;99.90
20416;DHT22;10367;52.202;5.996;2023-04-30T06:07:28;6.90;99.90
20416;DHT22;10367;52.202;5.996;2023-04-30T06:09:57;7.00;99.90
20416;DHT22;10367;52.202;5.996;2023-04-30T06:12:25;7.10;99.90
20416;DHT22;10367;52.202;5.996;2023-04-30T06:14:54;7.20;99.90
20416;DHT22;10367;52.202;5.996;2023-04-30T06:17:25;7.30;99.90
20416;DHT22;10367;52.202;5.996;2023-04-30T06:19:53;7.30;99.90
20416;DHT22;10367;52.202;5.996;2023-04-30T06:22:23;7.40;99.90
20416;DHT22;10367;52.202;5.996;2023-04-30T06:24:51;7.50;99.90
20416;DHT22;10367;52.202;5.996;2023-04-30T06:27:20;7.60;99.90
20416;DHT22;10367;52.202;5.996;2023-04-30T06:29:49;7.60;99.90
20416;DHT22;10367;52.202;5.996;2023-04-30T06:32:19;7.70;99.90
20416;DHT22;10367;52.202;5.996;2023-04-30T06:34:49;7.70;99.90
20416;DHT22;10367;52.202;5.996;2023-04-30T06:37:17;7.80;99.90
20416;DHT22;10367;52.202;5.996;2023-04-30T06:39:48;7.80;99.90
20416;DHT22;10367;52.202;5.996;2023-04-30T06:42:17;7.90;99.90
20416;DHT22;10367;52.202;5.996;2023-04-30T06:44:46;8.00;99.90
20416;DHT22;10367;52.202;5.996;2023-04-30T06:47:15;8.10;99.90
20416;DHT22;10367;52.202;5.996;2023-04-30T06:49:46;8.20;99.90
20416;DHT22;10367;52.202;5.996;2023-04-30T06:52:16;8.40;99.90
20416;DHT22;10367;52.202;5.996;2023-04-30T06:54:45;8.50;99.90
20416;DHT22;10367;52.202;5.996;2023-04-30T06:57:14;8.50;99.90
20416;DHT22;10367;52.202;5.996;2023-04-30T06:59:45;8.60;99.90
20416;DHT22;10367;52.202;5.996;2023-04-30T07:02:14;8.70;99.90
20416;DHT22;10367;52.202;5.996;2023-04-30T07:04:45;8.80;99.90
20416;DHT22;10367;52.202;5.996;2023-04-30T07:07:17;9.00;99.90
20416;DHT22;10367;52.202;5.996;2023-04-30T07:09:45;9.10;99.90
20416;DHT22;10367;52.202;5.996;2023-04-30T07:12:19;9.20;99.90
20416;DHT22;10367;52.202;5.996;2023-04-30T07:14:48;9.40;99.90
20416;DHT22;10367;52.202;5.996;2023-04-30T07:17:17;9.40;99.90
20416;DHT22;10367;52.202;5.996;2023-04-30T07:19:46;9.50;99.90
20416;DHT22;10367;52.202;5.996;2023-04-30T07:22:14;9.60;99.90
20416;DHT22;10367;52.202;5.996;2023-04-30T07:24:44;9.70;99.90
20416;DHT22;10367;52.202;5.996;2023-04-30T07:27:13;9.70;99.90
20416;DHT22;10367;52.202;5.996;2023-04-30T07:29:42;9.80;99.90
20416;DHT22;10367;52.202;5.996;2023-04-30T07:32:10;9.80;99.90
20416;DHT22;10367;52.202;5.996;2023-04-30T07:34:39;9.80;99.90
20416;DHT22;10367;52.202;5.996;2023-04-30T07:37:08;9.90;99.90
20416;DHT22;10367;52.202;5.996;2023-04-30T07:39:37;10.00;99.90
20416;DHT22;10367;52.202;5.996;2023-04-30T07:42:07;10.20;99.90
20416;DHT22;10367;52.202;5.996;2023-04-30T07:44:36;10.40;99.90
20416;DHT22;10367;52.202;5.996;2023-04-30T07:47:05;10.30;99.90
20416;DHT22;10367;52.202;5.996;2023-04-30T07:49:33;10.30;99.90
20416;DHT22;10367;52.202;5.996;2023-04-30T07:52:02;10.40;99.90
20416;DHT22;10367;52.202;5.996;2023-04-30T07:54:32;10.40;99.90
20416;DHT22;10367;52.202;5.996;2023-04-30T07:57:02;10.50;99.90
20416;DHT22;10367;52.202;5.996;2023-04-30T07:59:33;10.60;99.90
20416;DHT22;10367;52.202;5.996;2023-04-30T08:02:01;10.80;99.90
20416;DHT22;10367;52.202;5.996;2023-04-30T08:04:30;10.90;99.90
20416;DHT22;10367;52.202;5.996;2023-04-30T08:06:59;10.90;99.90
20416;DHT22;10367;52.202;5.996;2023-04-30T08:09:28;11.00;99.90
20416;DHT22;10367;52.202;5.996;2023-04-30T08:11:56;11.00;99.90
20416;DHT22;10367;52.202;5.996;2023-04-30T08:14:25;11.00;99.90
20416;DHT22;10367;52.202;5.996;2023-04-30T08:16:55;11.10;99.90
20416;DHT22;10367;52.202;5.996;2023-04-30T08:19:25;11.10;99.90
20416;DHT22;10367;52.202;5.996;2023-04-30T08:21:54;11.30;99.90
20416;DHT22;10367;52.202;5.996;2023-04-30T08:24:23;11.40;99.90
20416;DHT22;10367;52.202;5.996;2023-04-30T08:26:51;11.40;99.90
20416;DHT22;10367;52.202;5.996;2023-04-30T08:29:21;11.40;99.90
20416;DHT22;10367;52.202;5.996;2023-04-30T08:31:50;11.50;99.90
20416;DHT22;10367;52.202;5.996;2023-04-30T08:34:20;11.40;99.90
20416;DHT22;10367;52.202;5.996;2023-04-30T08:36:49;11.40;99.90
20416;DHT22;10367;52.202;5.996;2023-04-30T08:39:17;11.40;99.90
20416;DHT22;10367;52.202;5.996;2023-04-30T08:41:49;11.60;99.90
20416;DHT22;10367;52.202;5.996;2023-04-30T08:44:21;11.80;99.90
20416;DHT22;10367;52.202;5.996;2023-04-30T08:46:53;11.90;99.90
20416;DHT22;10367;52.202;5.996;2023-04-30T08:49:24;12.00;99.90
20416;DHT22;10367;52.202;5.996;2023-04-30T08:51:54;12.00;99.90
20416;DHT22;10367;52.202;5.996;2023-04-30T08:54:23;12.10;99.90
20416;DHT22;10367;52.202;5.996;2023-04-30T08:56:54;12.20;99.90
20416;DHT22;10367;52.202;5.996;2023-04-30T08:59:23;12.40;99.90
20416;DHT22;10367;52.202;5.996;2023-04-30T09:01:52;12.40;99.90
20416;DHT22;10367;52.202;5.996;2023-04-30T09:04:22;12.20;99.90
20416;DHT22;10367;52.202;5.996;2023-04-30T09:06:52;12.30;99.90
20416;DHT22;10367;52.202;5.996;2023-04-30T09:09:27;12.60;99.90
20416;DHT22;10367;52.202;5.996;2023-04-30T09:12:17;12.50;99.90
20416;DHT22;10367;52.202;5.996;2023-04-30T09:15:00;12.70;99.90
20416;DHT22;10367;52.202;5.996;2023-04-30T09:17:30;12.80;99.90
20416;DHT22;10367;52.202;5.996;2023-04-30T09:20:09;13.00;99.90
20416;DHT22;10367;52.202;5.996;2023-04-30T09:22:40;13.10;99.90
20416;DHT22;10367;52.202;5.996;2023-04-30T09:25:09;13.00;99.90
20416;DHT22;10367;52.202;5.996;2023-04-30T09:27:38;13.00;99.90
20416;DHT22;10367;52.202;5.996;2023-04-30T09:30:08;13.30;99.90
20416;DHT22;10367;52.202;5.996;2023-04-30T09:32:54;13.50;99.90
20416;DHT22;10367;52.202;5.996;2023-04-30T09:35:34;13.70;99.90
20416;DHT22;10367;52.202;5.996;2023-04-30T09:38:05;14.00;99.90
20416;DHT22;10367;52.202;5.996;2023-04-30T09:40:37;13.80;99.90
20416;DHT22;10367;52.202;5.996;2023-04-30T09:43:06;13.60;99.90
20416;DHT22;10367;52.202;5.996;2023-04-30T09:45:39;13.90;99.90
20416;DHT22;10367;52.202;5.996;2023-04-30T09:48:08;14.00;99.90
20416;DHT22;10367;52.202;5.996;2023-04-30T09:50:45;14.20;99.90
20416;DHT22;10367;52.202;5.996;2023-04-30T09:53:14;14.30;99.90
20416;DHT22;10367;52.202;5.996;2023-04-30T09:55:45;14.50;99.90
20416;DHT22;10367;52.202;5.996;2023-04-30T09:58:16;14.50;99.90
20416;DHT22;10367;52.202;5.996;2023-04-30T10:00:45;14.60;99.90
20416;DHT22;10367;52.202;5.996;2023-04-30T10:03:15;14.70;99.90
20416;DHT22;10367;52.202;5.996;2023-04-30T10:05:47;14.70;99.90
20416;DHT22;10367;52.202;5.996;2023-04-30T10:08:20;14.80;99.90
20416;DHT22;10367;52.202;5.996;2023-04-30T10:10:57;14.60;99.90
20416;DHT22;10367;52.202;5.996;2023-04-30T10:13:30;14.50;99.90
20416;DHT22;10367;52.202;5.996;2023-04-30T10:16:03;14.50;99.90
20416;DHT22;10367;52.202;5.996;2023-04-30T10:18:38;14.70;99.90
20416;DHT22;10367;52.202;5.996;2023-04-30T10:21:10;15.00;99.90
20416;DHT22;10367;52.202;5.996;2023-04-30T10:23:41;15.40;99.90
20416;DHT22;10367;52.202;5.996;2023-04-30T10:26:10;15.50;99.90
20416;DHT22;10367;52.202;5.996;2023-04-30T10:28:39;15.50;99.90
20416;DHT22;10367;52.202;5.996;2023-04-30T10:31:09;15.10;99.90
20416;DHT22;10367;52.202;5.996;2023-04-30T10:33:43;15.10;99.90
20416;DHT22;10367;52.202;5.996;2023-04-30T10:36:24;15.20;99.90
20416;DHT22;10367;52.202;5.996;2023-04-30T10:38:54;15.30;99.90
20416;DHT22;10367;52.202;5.996;2023-04-30T10:41:25;15.00;99.90
20416;DHT22;10367;52.202;5.996;2023-04-30T10:43:57;15.30;99.90
20416;DHT22;10367;52.202;5.996;2023-04-30T10:46:28;15.60;99.90
20416;DHT22;10367;52.202;5.996;2023-04-30T10:48:57;15.90;99.90
20416;DHT22;10367;52.202;5.996;2023-04-30T10:51:46;16.20;99.90
20416;DHT22;10367;52.202;5.996;2023-04-30T10:54:16;15.90;99.90
20416;DHT22;10367;52.202;5.996;2023-04-30T10:57:08;15.50;99.90
20416;DHT22;10367;52.202;5.996;2023-04-30T10:59:41;15.90;99.90
20416;DHT22;10367;52.202;5.996;2023-04-30T11:02:14;16.40;99.90
20416;DHT22;10367;52.202;5.996;2023-04-30T11:05:10;16.60;99.90
20416;DHT22;10367;52.202;5.996;2023-04-30T11:07:50;16.40;99.90
20416;DHT22;10367;52.202;5.996;2023-04-30T11:10:24;16.30;99.90
20416;DHT22;10367;52.202;5.996;2023-04-30T11:12:57;16.10;99.90
20416;DHT22;10367;52.202;5.996;2023-04-30T11:15:33;16.20;99.90
20416;DHT22;10367;52.202;5.996;2023-04-30T11:18:03;16.60;99.90
20416;DHT22;10367;52.202;5.996;2023-04-30T11:20:32;16.90;99.90
20416;DHT22;10367;52.202;5.996;2023-04-30T11:23:12;17.00;99.90
20416;DHT22;10367;52.202;5.996;2023-04-30T11:25:55;17.00;99.90
20416;DHT22;10367;52.202;5.996;2023-04-30T11:28:25;16.90;99.90
20416;DHT22;10367;52.202;5.996;2023-04-30T11:30:56;16.80;99.90
20416;DHT22;10367;52.202;5.996;2023-04-30T11:33:26;16.70;99.90
20416;DHT22;10367;52.202;5.996;2023-04-30T11:35:56;16.70;99.90
20416;DHT22;10367;52.202;5.996;2023-04-30T11:38:27;16.90;99.90
20416;DHT22;10367;52.202;5.996;2023-04-30T11:40:56;17.50;99.90
20416;DHT22;10367;52.202;5.996;2023-04-30T11:43:27;17.60;99.90
20416;DHT22;10367;52.202;5.996;2023-04-30T11:46:08;17.10;99.90
20416;DHT22;10367;52.202;5.996;2023-04-30T11:48:38;17.10;99.90
20416;DHT22;10367;52.202;5.996;2023-04-30T11:51:14;17.40;99.90
20416;DHT22;10367;52.202;5.996;2023-04-30T11:53:46;17.70;99.90
20416;DHT22;10367;52.202;5.996;2023-04-30T11:56:18;17.50;99.90
20416;DHT22;10367;52.202;5.996;2023-04-30T11:58:48;17.10;99.90
20416;DHT22;10367;52.202;5.996;2023-04-30T12:01:18;16.90;99.90
20416;DHT22;10367;52.202;5.996;2023-04-30T12:03:49;16.90;99.90
20416;DHT22;10367;52.202;5.996;2023-04-30T12:06:23;17.30;99.90
20416;DHT22;10367;52.202;5.996;2023-04-30T12:08:56;17.50;99.90
20416;DHT22;10367;52.202;5.996;2023-04-30T12:11:26;18.10;99.90
20416;DHT22;10367;52.202;5.996;2023-04-30T12:13:57;18.70;99.90
20416;DHT22;10367;52.202;5.996;2023-04-30T12:16:39;18.80;99.90
20416;DHT22;10367;52.202;5.996;2023-04-30T12:19:08;19.10;99.90
20416;DHT22;10367;52.202;5.996;2023-04-30T12:21:37;19.50;99.90
20416;DHT22;10367;52.202;5.996;2023-04-30T12:24:07;20.00;99.90
20416;DHT22;10367;52.202;5.996;2023-04-30T12:26:40;19.90;99.90
20416;DHT22;10367;52.202;5.996;2023-04-30T12:29:09;19.10;99.90
20416;DHT22;10367;52.202;5.996;2023-04-30T12:31:42;18.80;99.90
20416;DHT22;10367;52.202;5.996;2023-04-30T12:34:13;19.00;99.90
20416;DHT22;10367;52.202;5.996;2023-04-30T12:36:44;19.20;99.90
20416;DHT22;10367;52.202;5.996;2023-04-30T12:39:15;19.70;99.90
20416;DHT22;10367;52.202;5.996;2023-04-30T12:41:50;19.90;99.90
20416;DHT22;10367;52.202;5.996;2023-04-30T12:44:24;19.70;99.90
20416;DHT22;10367;52.202;5.996;2023-04-30T12:46:55;19.40;99.90
20416;DHT22;10367;52.202;5.996;2023-04-30T12:49:25;19.50;99.90
20416;DHT22;10367;52.202;5.996;2023-04-30T12:51:58;20.30;99.90
20416;DHT22;10367;52.202;5.996;2023-04-30T12:54:30;20.10;99.90
20416;DHT22;10367;52.202;5.996;2023-04-30T12:57:01;19.80;99.90
20416;DHT22;10367;52.202;5.996;2023-04-30T12:59:33;19.70;99.90
20416;DHT22;10367;52.202;5.996;2023-04-30T13:02:06;19.30;99.90
20416;DHT22;10367;52.202;5.996;2023-04-30T13:04:35;19.20;99.90
20416;DHT22;10367;52.202;5.996;2023-04-30T13:07:04;19.10;99.90
20416;DHT22;10367;52.202;5.996;2023-04-30T13:09:35;19.80;99.90
20416;DHT22;10367;52.202;5.996;2023-04-30T13:12:04;20.20;99.90
20416;DHT22;10367;52.202;5.996;2023-04-30T13:14:33;20.20;99.90
20416;DHT22;10367;52.202;5.996;2023-04-30T13:17:04;20.20;99.90
20416;DHT22;10367;52.202;5.996;2023-04-30T13:19:33;20.00;99.90
20416;DHT22;10367;52.202;5.996;2023-04-30T13:22:02;19.80;99.90
20416;DHT22;10367;52.202;5.996;2023-04-30T13:24:31;20.10;99.90
20416;DHT22;10367;52.202;5.996;2023-04-30T13:27:01;20.70;99.90
20416;DHT22;10367;52.202;5.996;2023-04-30T13:29:30;21.60;99.90
20416;DHT22;10367;52.202;5.996;2023-04-30T13:31:59;22.30;99.90
20416;DHT22;10367;52.202;5.996;2023-04-30T13:34:28;22.50;99.90
20416;DHT22;10367;52.202;5.996;2023-04-30T13:36:56;21.20;99.90
20416;DHT22;10367;52.202;5.996;2023-04-30T13:39:25;19.80;99.90
20416;DHT22;10367;52.202;5.996;2023-04-30T13:41:53;19.70;99.90
20416;DHT22;10367;52.202;5.996;2023-04-30T13:44:24;20.10;99.90
20416;DHT22;10367;52.202;5.996;2023-04-30T13:46:52;20.60;99.90
20416;DHT22;10367;52.202;5.996;2023-04-30T13:49:22;20.90;99.90
20416;DHT22;10367;52.202;5.996;2023-04-30T13:51:51;20.40;99.90
20416;DHT22;10367;52.202;5.996;2023-04-30T13:54:19;19.90;99.90
20416;DHT22;10367;52.202;5.996;2023-04-30T13:56:48;19.70;99.90
20416;DHT22;10367;52.202;5.996;2023-04-30T13:59:17;20.10;99.90
20416;DHT22;10367;52.202;5.996;2023-04-30T14:01:47;21.00;99.90
20416;DHT22;10367;52.202;5.996;2023-04-30T14:04:16;21.20;99.70
20416;DHT22;10367;52.202;5.996;2023-04-30T14:06:44;20.80;99.50
20416;DHT22;10367;52.202;5.996;2023-04-30T14:09:15;20.50;98.90
20416;DHT22;10367;52.202;5.996;2023-04-30T14:11:44;20.80;98.80
20416;DHT22;10367;52.202;5.996;2023-04-30T14:14:12;21.00;98.50
20416;DHT22;10367;52.202;5.996;2023-04-30T14:16:42;21.50;98.20
20416;DHT22;10367;52.202;5.996;2023-04-30T14:19:13;21.60;97.40
20416;DHT22;10367;52.202;5.996;2023-04-30T14:21:41;22.30;97.00
20416;DHT22;10367;52.202;5.996;2023-04-30T14:24:10;22.00;96.60
20416;DHT22;10367;52.202;5.996;2023-04-30T14:26:39;21.10;96.30
20416;DHT22;10367;52.202;5.996;2023-04-30T14:29:09;20.80;96.70
20416;DHT22;10367;52.202;5.996;2023-04-30T14:31:37;21.00;96.60
20416;DHT22;10367;52.202;5.996;2023-04-30T14:34:06;21.10;96.50
20416;DHT22;10367;52.202;5.996;2023-04-30T14:36:36;21.60;95.80
20416;DHT22;10367;52.202;5.996;2023-04-30T14:39:05;21.90;95.30
20416;DHT22;10367;52.202;5.996;2023-04-30T14:41:35;22.40;94.90
20416;DHT22;10367;52.202;5.996;2023-04-30T14:44:04;22.70;94.80
20416;DHT22;10367;52.202;5.996;2023-04-30T14:46:32;23.50;94.40
20416;DHT22;10367;52.202;5.996;2023-04-30T14:49:01;23.60;93.70
20416;DHT22;10367;52.202;5.996;2023-04-30T14:51:30;22.70;93.00
20416;DHT22;10367;52.202;5.996;2023-04-30T14:54:01;21.70;94.30
20416;DHT22;10367;52.202;5.996;2023-04-30T14:56:29;21.60;93.40
20416;DHT22;10367;52.202;5.996;2023-04-30T14:58:58;21.40;93.80
20416;DHT22;10367;52.202;5.996;2023-04-30T15:01:27;21.90;93.00
20416;DHT22;10367;52.202;5.996;2023-04-30T15:03:56;22.10;91.60
20416;DHT22;10367;52.202;5.996;2023-04-30T15:06:25;22.00;92.10
20416;DHT22;10367;52.202;5.996;2023-04-30T15:08:54;22.30;91.50
20416;DHT22;10367;52.202;5.996;2023-04-30T15:11:24;22.30;91.80
20416;DHT22;10367;52.202;5.996;2023-04-30T15:13:53;22.70;91.20
20416;DHT22;10367;52.202;5.996;2023-04-30T15:16:22;22.80;90.90
20416;DHT22;10367;52.202;5.996;2023-04-30T15:18:51;22.40;90.40
20416;DHT22;10367;52.202;5.996;2023-04-30T15:21:20;21.60;90.40
20416;DHT22;10367;52.202;5.996;2023-04-30T15:23:49;21.20;90.30
20416;DHT22;10367;52.202;5.996;2023-04-30T15:26:18;20.80;90.10
20416;DHT22;10367;52.202;5.996;2023-04-30T15:28:48;20.30;90.50
20416;DHT22;10367;52.202;5.996;2023-04-30T15:31:16;20.20;89.50
20416;DHT22;10367;52.202;5.996;2023-04-30T15:33:45;20.10;88.50
20416;DHT22;10367;52.202;5.996;2023-04-30T15:36:14;19.90;88.10
20416;DHT22;10367;52.202;5.996;2023-04-30T15:38:43;19.70;88.20
20416;DHT22;10367;52.202;5.996;2023-04-30T15:41:14;20.40;88.20
20416;DHT22;10367;52.202;5.996;2023-04-30T15:43:42;20.70;87.20
20416;DHT22;10367;52.202;5.996;2023-04-30T15:46:13;20.30;87.80
20416;DHT22;10367;52.202;5.996;2023-04-30T15:48:42;19.90;89.40
20416;DHT22;10367;52.202;5.996;2023-04-30T15:51:10;19.50;89.30
20416;DHT22;10367;52.202;5.996;2023-04-30T15:53:39;19.20;90.20
20416;DHT22;10367;52.202;5.996;2023-04-30T15:56:07;19.10;90.50
20416;DHT22;10367;52.202;5.996;2023-04-30T15:58:37;18.90;90.30